Aérodrome :
LOGIN :

S'inscrire | Disclaimer

   EN    FR    IT 

 










Légende :    VFR   VFR Marginal   IFR   IFR Intensif   IFR Très Intensif
Visi : 
Plafond : 
>= 8 km
>= 3000ft
5 à 8 km
1000 à 3000 ft
1500m à 5 km
500 à 1000 ft
800 à 1500m
200 à 500 ft
< 800m
< 200 ft
Symboles :   Orages  Brouillard  Fortes neiges  Fortes précipitations  Vent > 20 kt
SIGMETs :   Divers  Orages  Givrage  Turbulence  Onde Orograph.  Cendres Volcan.






- Altitude de l'aérodrome : 636 ft


EPLB - Lublin

DERNIER METAR :
  • 240530Z 06007KT 9999 -RA OVC004 06/06 Q1005

METARs EXPIRÉS :
  • 240500Z 06007KT 9999 -RA BKN004 OVC007 06/06 Q1006
  • 240430Z 06006KT 9999 -RA SCT006 OVC009 06/06 Q1006
  • 240400Z 05006KT 9999 -RA OVC010 06/05 Q1006
  • 240330Z 05007KT 9999 OVC013 07/04 Q1007
  • 240300Z 05008KT 9999 OVC014 06/04 Q1007
  • 240230Z 05006KT 9999 OVC035 06/04 Q1008
  • 240130Z 05007KT 9999 BKN043 06/03 Q1009
  • 240100Z 05005KT 9999 BKN045 06/03 Q1009

TAF TAF EPLB
Valide du 24 à 06h jusqu'au 25 à 06h UTC


240530Z 2406/2506 06006KT 9999 -RA OVC010
TEMPO 2406/2412 4000 RA BR BKN005
BECMG 2409/2412 35010KT
BECMG 2412/2415 27004KT BKN020
BECMG 2419/2422 BKN006
PROB40 2422/2506 2500 RA DZ BR BKN003



MET'MAP, la Météo Aéronautique d'un coup d'oeil ! - Copyright ORBIFLY Décembre 2007 - Disclaimer

ORBIFLY MET'MAP TEAM :

Programmation & Développement : Alexandra Zaïnal
Sur une idée originale de : Baudouin d'Aumeries
Soutien technique & logistique : Manuel Goepfert
Assistance : Marc-Olivier Méhu




SOURCES & CREDITS :

   NOAA